To NAV CANADA Home Page Login to a new session Search on AWWS site Feedback and Comments Disclaimer Vers la page française équivalente Tips FAQ What's new on the site To the Forecasts and Observations / NOTAM section To "File a Flight Plan" website Publications and other links Update of the User's profile FIC Telephone Numbers My Weather Data Folder Route Weather Data Regional Weather Data Local Weather Data To the Forecasts and Observations / NOTAM section
Request Generated 04/28/2015 at 02:01:01 UTC . Weather information available at that time is displayed.

METAR/TAF

NATASHQUAN/QC    (show WxCam)

METAR CYNA 280100Z AUTO 04010G15KT 9SM OVC022 05/03 A2987 RMK SLP117=
SPECI CYNA 280017Z AUTO 03008KT 9SM BKN020 OVC026 05/03 A2987 RMK
SLP117=
SPECI CYNA 280013Z AUTO 03008KT 9SM SCT020 OVC026 04/03 A2987 RMK
SLP117=
SPECI CYNA 280012Z AUTO 03008KT 9SM OVC024 04/03 A2987 RMK SLP117=
METAR CYNA 280000Z AUTO 05010G15KT 9SM OVC026 05/03 A2987 RMK SLP117=
SPECI CYNA 272336Z AUTO 06009KT 9SM OVC026 05/03 A2987 RMK SLP115=
SPECI CYNA 272309Z AUTO 06009KT 9SM BKN022 OVC028 05/03 A2986 RMK
SLP113=
METAR CYNA 272300Z AUTO 06009KT 9SM BKN028 OVC033 05/03 A2986 RMK
SLP112=

TAF CYNA 280138Z 2802/2814 04010G20KT P6SM SCT015 OVC025 TEMPO
2802/2808 P6SM -SHRA BKN015 OVC025
FM280800 02015G25KT P6SM BKN025
FM281200 02020G30KT P6SM -RA SCT009 OVC025 TEMPO 2812/2814 21/2SM
-RA BR OVC009
RMK FCST BASED ON AUTO OBS. NXT FCST BY 280800Z=
Your time UTC time
Weather data provided by Environment Canada and NAV CANADA